Aviation Digital Data Service (ADDS)

Output produced by METARs form (1502 UTC 19 January 2019)
found at http://www.aviationweather.gov/metar/data/
 
METAR text: MMOX 191440Z 05004KT 10SM OVC220 14/06 A3025 RMK SLP146 52009 971 8/007
Conditions at: MMOX (OAXACA/XOXOCOTLA, MX) observed 1440 UTC 19 January 2019
Temperature: 14.0°C (57°F)
Dewpoint: 6.0°C (43°F) [RH = 58%]
Pressure (altimeter): 30.25 inches Hg (1024.5 mb)
[Sea-level pressure: 1014.6 mb]
Winds: from the NE (50 degrees) at 5 MPH (4 knots; 2.1 m/s)
Visibility: 10 or more miles (16+ km)
Ceiling: 22000 feet AGL
Clouds: overcast cloud deck at 22000 feet AGL
Weather: no significant weather observed at this time

METAR text: MMOX 191347Z 36007KT 10SM OVC220 12/06 A3024 RMK 8/007
Conditions at: MMOX (OAXACA/XOXOCOTLA, MX) observed 1347 UTC 19 January 2019
Temperature: 12.0°C (54°F)
Dewpoint: 6.0°C (43°F) [RH = 67%]
Pressure (altimeter): 30.24 inches Hg (1024.1 mb)
Winds: from the N (360 degrees) at 8 MPH (7 knots; 3.6 m/s)
Visibility: 10 or more miles (16+ km)
Ceiling: 22000 feet AGL
Clouds: overcast cloud deck at 22000 feet AGL
Weather: no significant weather observed at this time

METAR text: MMOX 191243Z 36006KT 10SM SCT220 10/05 A3022 RMK 8/001
Conditions at: MMOX (OAXACA/XOXOCOTLA, MX) observed 1243 UTC 19 January 2019
Temperature: 10.0°C (50°F)
Dewpoint: 5.0°C (41°F) [RH = 71%]
Pressure (altimeter): 30.22 inches Hg (1023.5 mb)
Winds: from the N (360 degrees) at 7 MPH (6 knots; 3.1 m/s)
Visibility: 10 or more miles (16+ km)
Ceiling: at least 12,000 feet AGL
Clouds: scattered clouds at 22000 feet AGL
Weather: no significant weather observed at this time

METAR text: MMOX 191220Z RTD 35005KT 10SM SKC 10/05 A3022 RMK SLP133 5//// 970 RTS
Conditions at: MMOX (OAXACA/XOXOCOTLA, MX) observed 1220 UTC 19 January 2019
Temperature: 10.0°C (50°F)
Dewpoint: 5.0°C (41°F) [RH = 71%]
Pressure (altimeter): 30.22 inches Hg (1023.5 mb)
[Sea-level pressure: 1013.3 mb]
Winds: from the N (350 degrees) at 6 MPH (5 knots; 2.6 m/s)
Visibility: 10 or more miles (16+ km)
Ceiling: at least 12,000 feet AGL
Clouds: clear skies
Weather: no significant weather observed at this time

METAR text: MMOX 190140Z 00000KT 7SM OVC120 21/05 A3015 RMK 8/02/ BINOVC
Conditions at: MMOX (OAXACA/XOXOCOTLA, MX) observed 0140 UTC 19 January 2019
Temperature: 21.0°C (70°F)
Dewpoint: 5.0°C (41°F) [RH = 35%]
Pressure (altimeter): 30.15 inches Hg (1021.1 mb)
Winds: calm
Visibility: 7 miles (11 km)
Ceiling: 12000 feet AGL
Clouds: overcast cloud deck at 12000 feet AGL
Weather: no significant weather observed at this time

METAR text: MMOX 190041Z 14003KT 12SM SCT120 SCT210 22/04 A3011 RMK 8/036
Conditions at: MMOX (OAXACA/XOXOCOTLA, MX) observed 0041 UTC 19 January 2019
Temperature: 22.0°C (72°F)
Dewpoint: 4.0°C (39°F) [RH = 31%]
Pressure (altimeter): 30.11 inches Hg (1019.7 mb)
Winds: from the SE (140 degrees) at 3 MPH (3 knots; 1.5 m/s)
Visibility: 12 miles (19 km)
Ceiling: at least 12,000 feet AGL
Clouds: scattered clouds at 12000 feet AGL
scattered clouds at 21000 feet AGL
Weather: no significant weather observed at this time

METAR text: MMOX 182345Z 00000KT 12SM SCT040 SCT120 BKN210 25/04 A3010 RMK SLP104 52006 984 8/436
Conditions at: MMOX (OAXACA/XOXOCOTLA, MX) observed 2345 UTC 18 January 2019
Temperature: 25.0°C (77°F)
Dewpoint: 4.0°C (39°F) [RH = 26%]
Pressure (altimeter): 30.10 inches Hg (1019.4 mb)
[Sea-level pressure: 1010.4 mb]
Winds: calm
Visibility: 12 miles (19 km)
Ceiling: 21000 feet AGL
Clouds: scattered clouds at 4000 feet AGL
scattered clouds at 12000 feet AGL
broken clouds at 21000 feet AGL
Weather: no significant weather observed at this time

METAR text: MMOX 182246Z 17004KT 12SM SCT040 SCT120 BKN210 27/04 A3009 RMK 8/436
Conditions at: MMOX (OAXACA/XOXOCOTLA, MX) observed 2246 UTC 18 January 2019
Temperature: 27.0°C (81°F)
Dewpoint: 4.0°C (39°F) [RH = 23%]
Pressure (altimeter): 30.09 inches Hg (1019.0 mb)
Winds: from the S (170 degrees) at 5 MPH (4 knots; 2.1 m/s)
Visibility: 12 miles (19 km)
Ceiling: 21000 feet AGL
Clouds: scattered clouds at 4000 feet AGL
scattered clouds at 12000 feet AGL
broken clouds at 21000 feet AGL
Weather: no significant weather observed at this time

METAR text: MMOX 182141Z 21003KT 10SM SCT025 SCT220 27/04 A3010 RMK 8/402
Conditions at: MMOX (OAXACA/XOXOCOTLA, MX) observed 2141 UTC 18 January 2019
Temperature: 27.0°C (81°F)
Dewpoint: 4.0°C (39°F) [RH = 23%]
Pressure (altimeter): 30.10 inches Hg (1019.4 mb)
Winds: from the SSW (210 degrees) at 3 MPH (3 knots; 1.5 m/s)
Visibility: 10 or more miles (16+ km)
Ceiling: at least 12,000 feet AGL
Clouds: scattered clouds at 2500 feet AGL
scattered clouds at 22000 feet AGL
Weather: no significant weather observed at this time

METAR text: MMOX 182052Z 17004KT 10SM FEW025 BKN220 26/04 A3012 RMK SLP079 57040 983 8/402
Conditions at: MMOX (OAXACA/XOXOCOTLA, MX) observed 2052 UTC 18 January 2019
Temperature: 26.0°C (79°F)
Dewpoint: 4.0°C (39°F) [RH = 24%]
Pressure (altimeter): 30.12 inches Hg (1020.1 mb)
[Sea-level pressure: 1007.9 mb]
Winds: from the S (170 degrees) at 5 MPH (4 knots; 2.1 m/s)
Visibility: 10 or more miles (16+ km)
Ceiling: 22000 feet AGL
Clouds: few clouds at 2500 feet AGL
broken clouds at 22000 feet AGL
Weather: no significant weather observed at this time

METAR text: MMOX 181953Z 14004KT 10SM SCT025 SCT220 26/04 A3016 RMK 8/401
Conditions at: MMOX (OAXACA/XOXOCOTLA, MX) observed 1953 UTC 18 January 2019
Temperature: 26.0°C (79°F)
Dewpoint: 4.0°C (39°F) [RH = 24%]
Pressure (altimeter): 30.16 inches Hg (1021.4 mb)
Winds: from the SE (140 degrees) at 5 MPH (4 knots; 2.1 m/s)
Visibility: 10 or more miles (16+ km)
Ceiling: at least 12,000 feet AGL
Clouds: scattered clouds at 2500 feet AGL
scattered clouds at 22000 feet AGL
Weather: no significant weather observed at this time

METAR text: MMOX 181840Z 07002KT 10SM FEW025 SCT220 23/04 A3022 RMK 8/102
Conditions at: MMOX (OAXACA/XOXOCOTLA, MX) observed 1840 UTC 18 January 2019
Temperature: 23.0°C (73°F)
Dewpoint: 4.0°C (39°F) [RH = 29%]
Pressure (altimeter): 30.22 inches Hg (1023.5 mb)
Winds: from the ENE (70 degrees) at 2 MPH (2 knots; 1.0 m/s)
Visibility: 10 or more miles (16+ km)
Ceiling: at least 12,000 feet AGL
Clouds: few clouds at 2500 feet AGL
scattered clouds at 22000 feet AGL
Weather: no significant weather observed at this time

METAR text: MMOX 181748Z 13003KT 10SM FEW025 21/05 A3026 RMK SLP135 57026 983 8/100 CI
Conditions at: MMOX (OAXACA/XOXOCOTLA, MX) observed 1748 UTC 18 January 2019
Temperature: 21.0°C (70°F)
Dewpoint: 5.0°C (41°F) [RH = 35%]
Pressure (altimeter): 30.26 inches Hg (1024.8 mb)
[Sea-level pressure: 1013.5 mb]
Winds: from the SE (130 degrees) at 3 MPH (3 knots; 1.5 m/s)
Visibility: 10 or more miles (16+ km)
Ceiling: at least 12,000 feet AGL
Clouds: few clouds at 2500 feet AGL
Weather: no significant weather observed at this time

METAR text: MMOX 181651Z 19005KT 10SM SKC 20/06 A3030
Conditions at: MMOX (OAXACA/XOXOCOTLA, MX) observed 1651 UTC 18 January 2019
Temperature: 20.0°C (68°F)
Dewpoint: 6.0°C (43°F) [RH = 40%]
Pressure (altimeter): 30.30 inches Hg (1026.2 mb)
Winds: from the S (190 degrees) at 6 MPH (5 knots; 2.6 m/s)
Visibility: 10 or more miles (16+ km)
Ceiling: at least 12,000 feet AGL
Clouds: clear skies
Weather: no significant weather observed at this time

METAR text: MMOX 181545Z 34003KT 10SM SKC 16/07 A3032
Conditions at: MMOX (OAXACA/XOXOCOTLA, MX) observed 1545 UTC 18 January 2019
Temperature: 16.0°C (61°F)
Dewpoint: 7.0°C (45°F) [RH = 55%]
Pressure (altimeter): 30.32 inches Hg (1026.8 mb)
Winds: from the NNW (340 degrees) at 3 MPH (3 knots; 1.5 m/s)
Visibility: 10 or more miles (16+ km)
Ceiling: at least 12,000 feet AGL
Clouds: clear skies
Weather: no significant weather observed at this time

METAR text: MMOX 181444Z 01003KT 10SM SKC 12/07 A3033 RMK SLP189 52010 969
Conditions at: MMOX (OAXACA/XOXOCOTLA, MX) observed 1444 UTC 18 January 2019
Temperature: 12.0°C (54°F)
Dewpoint: 7.0°C (45°F) [RH = 71%]
Pressure (altimeter): 30.33 inches Hg (1027.2 mb)
[Sea-level pressure: 1018.9 mb]
Winds: from the N (10 degrees) at 3 MPH (3 knots; 1.5 m/s)
Visibility: 10 or more miles (16+ km)
Ceiling: at least 12,000 feet AGL
Clouds: clear skies
Weather: no significant weather observed at this time

METAR text: MMOX 181348Z 36002KT 10SM SKC 09/07 A3031 RMK CI
Conditions at: MMOX (OAXACA/XOXOCOTLA, MX) observed 1348 UTC 18 January 2019
Temperature: 9.0°C (48°F)
Dewpoint: 7.0°C (45°F) [RH = 87%]
Pressure (altimeter): 30.31 inches Hg (1026.5 mb)
Winds: from the N (360 degrees) at 2 MPH (2 knots; 1.0 m/s)
Visibility: 10 or more miles (16+ km)
Ceiling: at least 12,000 feet AGL
Clouds: clear skies
Weather: no significant weather observed at this time

METAR text: MMOX 181255Z 34002KT 10SM SKC 07/06 A3030
Conditions at: MMOX (OAXACA/XOXOCOTLA, MX) observed 1255 UTC 18 January 2019
Temperature: 7.0°C (45°F)
Dewpoint: 6.0°C (43°F) [RH = 93%]
Pressure (altimeter): 30.30 inches Hg (1026.2 mb)
Winds: from the NNW (340 degrees) at 2 MPH (2 knots; 1.0 m/s)
Visibility: 10 or more miles (16+ km)
Ceiling: at least 12,000 feet AGL
Clouds: clear skies
Weather: no significant weather observed at this time

METAR text: MMOX 181207Z RTD 00000KT 10SM SKC 08/07 A3029 RMK SLP171 5//// 964 RTS
Conditions at: MMOX (OAXACA/XOXOCOTLA, MX) observed 1207 UTC 18 January 2019
Temperature: 8.0°C (46°F)
Dewpoint: 7.0°C (45°F) [RH = 93%]
Pressure (altimeter): 30.29 inches Hg (1025.8 mb)
[Sea-level pressure: 1017.1 mb]
Winds: calm
Visibility: 10 or more miles (16+ km)
Ceiling: at least 12,000 feet AGL
Clouds: clear skies
Weather: no significant weather observed at this time

Forecast for: MMOX (OAXACA/XOXOCOTLA, MX)
Text: TAF MMOX 190452Z 1906/2006 00000KT 6SM HZ SCT100 OVC200
Forecast period: 0600 to 1800 UTC 19 January 2019
Forecast type: FROM: standard forecast or significant change
Winds: calm
Visibility: 6 miles (10 km)
Ceiling: 20000 feet AGL
Clouds: scattered clouds at 10000 feet AGL
overcast cloud deck at 20000 feet AGL
Weather: HZ  (haze)
Text: FM191800 03010KT P6SM SCT020 BKN200
Forecast period: 1800 UTC 19 January 2019 to 0300 UTC 20 January 2019
Forecast type: FROM: standard forecast or significant change
Winds: from the NNE (30 degrees) at 12 MPH (10 knots; 5.1 m/s)
Visibility: 6 or more miles 10+ km)
Ceiling: 20000 feet AGL
Clouds: scattered clouds at 2000 feet AGL
broken clouds at 20000 feet AGL
Weather: no significant weather forecast for this period
Text: TEMPO 1922/2002 6SM -RA BKN020CB
Forecast period: 2200 UTC 19 January 2019 to 0200 UTC 20 January 2019
Forecast type: TEMPORARY: The following changes expected for less than half the time period
Visibility: 6 miles (10 km)
Ceiling: 2000 feet AGL
Clouds: broken clouds at 2000 feet AGL
Weather: -RA  (light rain)
Text: FM200300 03005KT 6SM HZ SCT020 BKN200
Forecast period: 0300 to 0600 UTC 20 January 2019
Forecast type: FROM: standard forecast or significant change
Winds: from the NNE (30 degrees) at 6 MPH (5 knots; 2.6 m/s)
Visibility: 6 miles (10 km)
Ceiling: 20000 feet AGL
Clouds: scattered clouds at 2000 feet AGL
broken clouds at 20000 feet AGL
Weather: HZ  (haze)